Meteo Giornale » Osservazioni meteo Algeria » Constantine
ore: 15:30 - Osservazioni Meteo Constantine
Lat. 36° 17' N Lon. 6° 37' E Alt. 694 metri s.l.m.
38 °C
Nuvoloso
Temp. 24 Ore
22 °C
38 °C
Nord/Nord-Est
20.3 Km/h
Dew point 10 °C
Umidità 18 %
Visibilità 10 Km
Il sole sorge alle ore 06:05
Il sole tramonta alle ore 19:02
| Data e Ora | Cielo e Fenomeni | T °C | DP °C | Um. % | Pres. hPa | Vis. km | Vento km/h | |
|---|---|---|---|---|---|---|---|---|
| Oggi h: 15:30 | Nuvoloso | 38 | 10 | 18 | 1020 | 10 | N/NE 20.3 | |
| Oggi h: 15:00 | Nuvoloso | 38 | 7 | 15 | 1021 | 10 | N/NE 22.2 | |
| Oggi h: 14:30 | Nuvoloso | 38 | 8 | 16 | 1021 | 10 | N/NE 22.2 | |
| Oggi h: 14:00 | Nuvoloso | 38 | 8 | 16 | 1021 | 10 | N 22.2 | |
| Oggi h: 13:30 | Nuvoloso | 38 | 9 | 17 | 1022 | 10 | N/NE 16.7 | |
| Oggi h: 13:00 | Nuvoloso | 38 | 9 | 17 | 1022 | 10 | NE 14.8 | |
| Oggi h: 12:30 | Nuvoloso | 37 | 9 | 18 | 1022 | 10 | N 9.3 | |
| Oggi h: 12:00 | Nuvoloso | 36 | 9 | 19 | 1023 | 10 | NE 13 | |
| Oggi h: 11:30 | Nuvoloso | 35 | 11 | 23 | 1023 | 10 | N/NE 11.1 | |
| Oggi h: 11:00 | Nuvoloso | 34 | 12 | 26 | 1023 | 10 | SE 7.4 | |
| Oggi h: 10:30 | Nuvoloso | 33 | 12 | 27 | 1023 | 10 | E/NE 7.4 | |
| Oggi h: 10:00 | Nuvoloso | 32 | 12 | 29 | 1023 | 10 | N 3.7 | |
| Oggi h: 09:30 | Nuvoloso | 31 | 14 | 35 | 1023 | 10 | N 5.5 | |
| Oggi h: 09:00 | Nuvoloso | 29 | 13 | 37 | 1023 | 10 | N 5.5 | |
| Oggi h: 08:30 | Poco Nuvoloso | 28 | 14 | 42 | 1022 | 10 | N 1.8 | |
| Oggi h: 08:00 | Poco Nuvoloso | 27 | 13 | 42 | 1022 | 10 | N 1.8 | |
| Oggi h: 07:30 | Poco Nuvoloso | 25 | 14 | 50 | 1022 | 10 | N 5.5 | |
| Oggi h: 07:00 | Poco Nuvoloso | 22 | 13 | 56 | 1022 | 10 | N 5.5 | |
| Oggi h: 06:30 | Nuvoloso | 23 | 13 | 53 | 1021 | 10 | N 5.5 | |
| Oggi h: 06:00 | Nuvoloso | 23 | 13 | 53 | 1021 | 10 | SO 7.4 | |
| Oggi h: 05:00 | Nuvoloso | 23 | 13 | 53 | 1021 | 10 | SO 7.4 | |
| Oggi h: 04:30 | Nuvoloso | 25 | 13 | 47 | 1021 | 10 | O/SO 20.3 | |
| Oggi h: 04:00 | Nuvoloso | 26 | 12 | 41 | 1021 | 10 | S/SO 16.7 | |
| Oggi h: 03:30 | Nuvoloso | 26 | 13 | 44 | 1021 | 10 | O/SO 20.3 | |
| Oggi h: 03:00 | Nuvoloso | 26 | 14 | 47 | 1021 | 10 | O/SO 20.3 | |
| Oggi h: 02:30 | Nuvoloso | 26 | 13 | 44 | 1022 | 10 | S/SO 13 | |
| Oggi h: 01:30 | Nuvoloso | 25 | 15 | 53 | 1023 | 10 | S/SO 13 | |
| Oggi h: 01:00 | Nuvoloso | 24 | 15 | 57 | 1023 | 10 | S/SO 13 | |
| Oggi h: 00:30 | Nuvoloso | 25 | 16 | 57 | 1024 | 10 | S 13 | |
| Oggi h: 00:00 | Nuvoloso | 26 | 14 | 47 | 1025 | 10 | E 9.3 | |
| Ieri h: 23:30 | Nuvoloso | 27 | 14 | 44 | 1026 | 10 | N 5.5 | |
| Ieri h: 23:00 | Pioggia | 26 | 15 | 50 | 1025 | 10 | O/NO 18.5 | |
| Ieri h: 22:30 | Nuvoloso | 29 | 14 | 39 | 1025 | 10 | N/NO 31.5 | |
| Ieri h: 21:30 | Nuvoloso | 28 | 12 | 37 | 1023 | 10 | N 16.7 | |
| Ieri h: 21:00 | Nuvoloso | 27 | 13 | 42 | 1022 | 10 | O 9.3 | |
| Ieri h: 20:30 | Nuvoloso | 27 | 13 | 42 | 1020 | 10 | S 9.3 | |
| Ieri h: 20:00 | Nuvoloso | 28 | 13 | 39 | 1021 | 10 | S 13 | |
| Ieri h: 19:30 | Temporale | 28 | 12 | 37 | 1021 | 10 | E/SE 13 | |
| Ieri h: 19:00 | Temporale | 28 | 13 | 39 | 1021 | 10 | E/NE 7.4 | |
| Ieri h: 18:30 | Temporale | 27 | 13 | 42 | 1021 | 10 | SE 27.8 | |
| Ieri h: 18:00 | Temporale | 28 | 13 | 39 | 1021 | 10 | S/SE 31.5 | |
| Ieri h: 17:30 | Temporale | 27 | 14 | 44 | 1022 | 10 | S 31.5 | |
| Ieri h: 17:00 | Temporale | 33 | 10 | 24 | 1021 | 10 | SE 35.2 | |



